createdAt,value
2016-12-10T00:00:09.884Z,924.71
2016-12-10T00:00:24.452Z,924.71
2016-12-10T00:00:39.009Z,924.75
2016-12-10T00:00:53.463Z,924.74
2016-12-10T00:01:08.111Z,924.71
2016-12-10T00:01:22.937Z,924.74
2016-12-10T00:01:37.313Z,924.71
2016-12-10T00:01:51.821Z,924.72
2016-12-10T00:02:06.403Z,924.74
2016-12-10T00:02:20.864Z,924.73
2016-12-10T00:02:35.307Z,924.72
2016-12-10T00:02:49.793Z,924.72
2016-12-10T00:03:04.207Z,924.74
2016-12-10T00:03:18.992Z,924.71
2016-12-10T00:03:33.738Z,924.72
2016-12-10T00:03:48.361Z,924.75
2016-12-10T00:04:02.945Z,924.76
2016-12-10T00:04:17.428Z,924.76
2016-12-10T00:04:31.935Z,924.73
2016-12-10T00:04:46.469Z,924.76
2016-12-10T00:05:00.956Z,924.76
2016-12-10T00:05:15.244Z,924.79
2016-12-10T00:05:29.740Z,924.78
2016-12-10T00:05:44.127Z,924.77
2016-12-10T00:05:58.711Z,924.75
2016-12-10T00:06:13.288Z,924.77
2016-12-10T00:06:27.710Z,924.76
2016-12-10T00:06:42.162Z,924.75
2016-12-10T00:06:58.255Z,924.82
2016-12-10T00:07:12.620Z,924.8
2016-12-10T00:07:27.082Z,924.8
2016-12-10T00:07:41.529Z,924.78
2016-12-10T00:07:58.755Z,924.79
2016-12-10T00:08:16.338Z,924.82
2016-12-10T00:08:30.935Z,924.81
2016-12-10T00:08:45.398Z,924.8
2016-12-10T00:08:59.971Z,924.82
2016-12-10T00:09:14.499Z,924.79
2016-12-10T00:09:28.960Z,924.78
2016-12-10T00:09:43.464Z,924.8
2016-12-10T00:09:57.933Z,924.81
2016-12-10T00:10:12.383Z,924.82
2016-12-10T00:10:26.853Z,924.79
2016-12-10T00:10:41.221Z,924.81
2016-12-10T00:10:55.757Z,924.79
2016-12-10T00:11:10.207Z,924.82
2016-12-10T00:11:24.877Z,924.81
2016-12-10T00:11:39.317Z,924.83
2016-12-10T00:11:53.703Z,924.84
2016-12-10T00:12:08.305Z,924.82
2016-12-10T00:12:22.777Z,924.85
2016-12-10T00:12:37.242Z,924.82
2016-12-10T00:12:51.754Z,924.8
2016-12-10T00:13:06.194Z,924.8
2016-12-10T00:13:21.135Z,924.8
2016-12-10T00:13:35.739Z,924.84
2016-12-10T00:13:50.193Z,924.82
2016-12-10T00:14:04.928Z,924.82
2016-12-10T00:14:19.387Z,924.86
2016-12-10T00:14:33.817Z,924.85
2016-12-10T00:14:48.312Z,924.85
2016-12-10T00:15:02.822Z,924.8
2016-12-10T00:15:17.284Z,924.84
2016-12-10T00:15:31.660Z,924.84
2016-12-10T00:15:46.098Z,924.87
2016-12-10T00:16:00.496Z,924.85
2016-12-10T00:16:14.940Z,924.83
2016-12-10T00:16:29.335Z,924.88
2016-12-10T00:16:43.794Z,924.88
2016-12-10T00:16:58.150Z,924.88
2016-12-10T00:17:12.527Z,924.86
2016-12-10T00:17:26.998Z,924.85
2016-12-10T00:17:41.467Z,924.87
2016-12-10T00:17:55.926Z,924.88
2016-12-10T00:18:10.384Z,924.89
2016-12-10T00:18:24.940Z,924.91
2016-12-10T00:18:39.473Z,924.89
2016-12-10T00:18:53.919Z,924.87
2016-12-10T00:19:08.345Z,924.85
2016-12-10T00:19:22.704Z,924.87
2016-12-10T00:19:37.129Z,924.86
2016-12-10T00:19:51.674Z,924.88
2016-12-10T00:20:06.047Z,924.88
2016-12-10T00:20:20.492Z,924.89
2016-12-10T00:20:35.111Z,924.92
2016-12-10T00:20:49.597Z,924.9
2016-12-10T00:21:04.027Z,924.93
2016-12-10T00:21:18.555Z,924.9
2016-12-10T00:21:33.004Z,924.91
2016-12-10T00:21:47.476Z,924.91
2016-12-10T00:22:01.854Z,924.89
2016-12-10T00:22:16.279Z,924.89
2016-12-10T00:22:30.772Z,924.92
2016-12-10T00:22:45.415Z,924.89
2016-12-10T00:22:59.952Z,924.91
2016-12-10T00:23:14.343Z,924.9
2016-12-10T00:23:28.719Z,924.92
2016-12-10T00:23:43.223Z,924.89
2016-12-10T00:23:57.672Z,924.89
2016-12-10T00:24:12.158Z,924.9
2016-12-10T00:24:26.618Z,924.89
2016-12-10T00:24:41.055Z,924.87
2016-12-10T00:24:55.552Z,924.87
2016-12-10T00:25:10.027Z,924.94
2016-12-10T00:25:24.533Z,924.92
2016-12-10T00:25:38.962Z,924.91
2016-12-10T00:25:53.610Z,924.91
2016-12-10T00:26:08.191Z,924.91
2016-12-10T00:26:22.582Z,924.91
2016-12-10T00:26:37.088Z,924.95
2016-12-10T00:26:51.569Z,924.94
2016-12-10T00:27:06.024Z,924.92
2016-12-10T00:27:20.573Z,924.91
2016-12-10T00:27:35.045Z,924.92
2016-12-10T00:27:49.550Z,924.92
2016-12-10T00:28:04.021Z,924.93
2016-12-10T00:28:18.461Z,924.95
2016-12-10T00:28:33.302Z,924.95
2016-12-10T00:28:47.806Z,924.93
2016-12-10T00:29:02.337Z,924.97
2016-12-10T00:29:16.795Z,924.95
2016-12-10T00:29:31.144Z,924.93
2016-12-10T00:29:45.632Z,924.94
2016-12-10T00:30:00.102Z,924.94
2016-12-10T00:30:14.581Z,924.95
2016-12-10T00:30:28.957Z,924.93
2016-12-10T00:30:43.350Z,924.98
2016-12-10T00:30:57.792Z,924.93
2016-12-10T00:31:12.205Z,924.94
2016-12-10T00:31:26.648Z,924.96
2016-12-10T00:31:41.070Z,924.93
2016-12-10T00:31:55.491Z,924.98
2016-12-10T00:32:09.990Z,924.91
2016-12-10T00:32:24.572Z,924.95
2016-12-10T00:32:39.019Z,924.97
2016-12-10T00:32:53.423Z,924.95
2016-12-10T00:33:07.889Z,924.96
2016-12-10T00:33:22.366Z,924.94
2016-12-10T00:33:36.742Z,924.96
2016-12-10T00:33:51.263Z,924.92
2016-12-10T00:34:05.713Z,924.92
2016-12-10T00:34:20.176Z,924.93
2016-12-10T00:34:34.621Z,924.94
2016-12-10T00:34:49.099Z,924.98
2016-12-10T00:35:03.496Z,924.95
2016-12-10T00:35:17.887Z,924.93
2016-12-10T00:35:32.355Z,924.93
2016-12-10T00:35:46.739Z,924.96
2016-12-10T00:36:01.194Z,924.94
2016-12-10T00:36:15.654Z,924.92
2016-12-10T00:36:30.048Z,924.94
2016-12-10T00:36:44.532Z,924.97
2016-12-10T00:36:58.971Z,924.95
2016-12-10T00:37:13.327Z,924.95
2016-12-10T00:37:27.814Z,924.96
2016-12-10T00:37:42.274Z,924.97
2016-12-10T00:37:56.643Z,924.99
2016-12-10T00:38:11.051Z,924.99
2016-12-10T00:38:25.421Z,925.01
2016-12-10T00:38:39.814Z,925.01
2016-12-10T00:38:54.214Z,924.99
2016-12-10T00:39:08.676Z,925
2016-12-10T00:39:23.056Z,924.99
2016-12-10T00:39:37.447Z,925
2016-12-10T00:39:51.901Z,924.99
2016-12-10T00:40:06.352Z,924.99
2016-12-10T00:40:20.671Z,924.97
2016-12-10T00:40:35.087Z,925.01
2016-12-10T00:40:49.499Z,925
2016-12-10T00:41:03.899Z,924.99
2016-12-10T00:41:18.269Z,924.98
2016-12-10T00:41:32.725Z,924.97
2016-12-10T00:41:47.133Z,925.02
2016-12-10T00:42:01.439Z,924.97
2016-12-10T00:42:15.823Z,925
2016-12-10T00:42:30.211Z,925
2016-12-10T00:42:44.599Z,924.98
2016-12-10T00:42:59.011Z,924.98
2016-12-10T00:43:13.375Z,924.98
2016-12-10T00:43:27.764Z,924.98
2016-12-10T00:43:42.484Z,925
2016-12-10T00:43:56.848Z,925.02
2016-12-10T00:44:11.255Z,924.99
2016-12-10T00:44:25.666Z,924.98
2016-12-10T00:44:40.165Z,924.97
2016-12-10T00:44:54.515Z,924.99
2016-12-10T00:45:08.876Z,924.96
2016-12-10T00:45:23.214Z,924.95
2016-12-10T00:45:37.547Z,924.97
2016-12-10T00:45:51.961Z,924.95
2016-12-10T00:46:06.308Z,924.96
2016-12-10T00:46:20.679Z,924.96
2016-12-10T00:46:35.020Z,924.97
2016-12-10T00:46:49.440Z,924.97
2016-12-10T00:47:04.006Z,924.97
2016-12-10T00:47:18.443Z,924.94
2016-12-10T00:47:32.877Z,924.95
2016-12-10T00:47:47.404Z,924.98
2016-12-10T00:48:01.750Z,924.95
2016-12-10T00:48:16.344Z,924.96
2016-12-10T00:48:30.906Z,924.97
2016-12-10T00:48:45.433Z,925
2016-12-10T00:48:59.885Z,924.93
2016-12-10T00:49:14.276Z,924.93
2016-12-10T00:49:28.836Z,924.93
2016-12-10T00:49:43.217Z,924.93
2016-12-10T00:49:57.881Z,924.95
2016-12-10T00:50:12.260Z,924.92
2016-12-10T00:50:26.848Z,924.9
2016-12-10T00:50:41.237Z,924.91
2016-12-10T00:50:55.627Z,924.91
2016-12-10T00:51:10.086Z,924.9
2016-12-10T00:51:24.515Z,924.88
2016-12-10T00:51:39.027Z,924.92
2016-12-10T00:51:53.352Z,924.92
2016-12-10T00:52:07.863Z,924.88
2016-12-10T00:52:22.295Z,924.89
2016-12-10T00:52:36.775Z,924.89
2016-12-10T00:52:51.237Z,924.88
2016-12-10T00:53:05.810Z,924.89
2016-12-10T00:53:20.269Z,924.92
2016-12-10T00:53:34.751Z,924.93
2016-12-10T00:53:49.153Z,924.9
2016-12-10T00:54:03.556Z,924.94
2016-12-10T00:54:18.100Z,924.89
2016-12-10T00:54:32.530Z,924.95
2016-12-10T00:54:46.913Z,924.92
2016-12-10T00:55:01.480Z,924.93
2016-12-10T00:55:16.008Z,924.91
2016-12-10T00:55:30.462Z,924.94
2016-12-10T00:55:45.089Z,924.93
2016-12-10T00:55:59.497Z,924.92
2016-12-10T00:56:13.955Z,924.93
2016-12-10T00:56:28.435Z,924.93
2016-12-10T00:56:42.780Z,924.95
2016-12-10T00:56:57.189Z,924.92
2016-12-10T00:57:11.718Z,924.91
2016-12-10T00:57:26.113Z,924.92
2016-12-10T00:57:40.550Z,924.95
2016-12-10T00:57:54.975Z,924.94
2016-12-10T00:58:09.339Z,924.95
2016-12-10T00:58:23.720Z,924.97
2016-12-10T00:58:38.186Z,924.99
2016-12-10T00:58:52.843Z,924.99
2016-12-10T00:59:07.249Z,924.99
2016-12-10T00:59:21.694Z,924.96
2016-12-10T00:59:36.049Z,924.97
2016-12-10T00:59:50.460Z,924.98
2016-12-10T01:00:04.782Z,924.99
2016-12-10T01:00:19.188Z,924.98
2016-12-10T01:00:33.593Z,924.98
2016-12-10T01:00:47.992Z,924.95
2016-12-10T01:01:02.415Z,925.02
2016-12-10T01:01:16.862Z,925
2016-12-10T01:01:31.261Z,924.96
2016-12-10T01:01:45.786Z,924.99
2016-12-10T01:02:00.172Z,925.03
2016-12-10T01:02:14.611Z,925.03
2016-12-10T01:02:29.108Z,925
2016-12-10T01:02:43.492Z,925.03
2016-12-10T01:02:57.905Z,925.02
2016-12-10T01:03:12.287Z,925.01
2016-12-10T01:03:27.326Z,925.03
2016-12-10T01:03:41.665Z,925
2016-12-10T01:03:56.051Z,924.99
2016-12-10T01:04:10.465Z,924.97
2016-12-10T01:04:24.935Z,924.99
2016-12-10T01:04:39.280Z,924.99
2016-12-10T01:04:53.687Z,924.99
2016-12-10T01:05:08.104Z,924.97
2016-12-10T01:05:22.430Z,924.96
2016-12-10T01:05:36.841Z,924.99
2016-12-10T01:05:51.252Z,924.97
2016-12-10T01:06:05.655Z,924.97
2016-12-10T01:06:20.006Z,925.01
2016-12-10T01:06:34.461Z,924.97
2016-12-10T01:06:48.874Z,924.97
2016-12-10T01:07:03.281Z,924.93
2016-12-10T01:07:17.700Z,924.96
2016-12-10T01:07:32.141Z,924.93
2016-12-10T01:07:46.495Z,924.92
2016-12-10T01:08:00.843Z,924.96
2016-12-10T01:08:15.318Z,924.94
2016-12-10T01:08:29.736Z,924.95
2016-12-10T01:08:44.118Z,924.95
2016-12-10T01:08:58.514Z,924.92
2016-12-10T01:09:12.905Z,924.94
2016-12-10T01:09:27.325Z,924.93
2016-12-10T01:09:41.662Z,924.97
2016-12-10T01:09:55.972Z,924.96
2016-12-10T01:10:10.359Z,924.98
2016-12-10T01:10:24.753Z,924.92
2016-12-10T01:10:39.210Z,924.91
2016-12-10T01:10:53.593Z,924.89
2016-12-10T01:11:07.950Z,924.89
2016-12-10T01:11:22.417Z,924.86
2016-12-10T01:11:36.857Z,924.92
2016-12-10T01:11:51.256Z,924.94
2016-12-10T01:12:05.648Z,924.94
2016-12-10T01:12:20.042Z,924.93
2016-12-10T01:12:34.495Z,924.95
2016-12-10T01:12:48.909Z,924.91
2016-12-10T01:13:03.314Z,924.88
2016-12-10T01:13:17.735Z,924.93
2016-12-10T01:13:32.164Z,924.94
2016-12-10T01:13:46.521Z,924.89
2016-12-10T01:14:01.196Z,924.88
2016-12-10T01:14:15.628Z,924.89
2016-12-10T01:14:30.035Z,924.89
2016-12-10T01:14:44.406Z,924.87
2016-12-10T01:14:58.791Z,924.88
2016-12-10T01:15:13.230Z,924.87
2016-12-10T01:15:27.602Z,924.87
2016-12-10T01:15:41.990Z,924.9
2016-12-10T01:15:56.445Z,924.89
2016-12-10T01:16:10.825Z,924.89
2016-12-10T01:16:25.236Z,924.89
2016-12-10T01:16:39.648Z,924.88
2016-12-10T01:16:54.068Z,924.89
2016-12-10T01:17:08.412Z,924.92
2016-12-10T01:17:22.829Z,924.93
2016-12-10T01:17:37.236Z,924.9
2016-12-10T01:17:51.654Z,924.95
2016-12-10T01:18:06.039Z,924.97
2016-12-10T01:18:20.412Z,924.96
2016-12-10T01:18:34.768Z,924.93
2016-12-10T01:18:49.176Z,924.95
2016-12-10T01:19:03.532Z,924.95
2016-12-10T01:19:17.987Z,924.95
2016-12-10T01:19:32.389Z,924.95
2016-12-10T01:19:46.797Z,924.96
2016-12-10T01:20:01.244Z,924.96
2016-12-10T01:20:15.636Z,924.98
2016-12-10T01:20:30.062Z,924.95
2016-12-10T01:20:44.477Z,925.01
2016-12-10T01:20:58.924Z,924.97
2016-12-10T01:21:13.360Z,925.02
2016-12-10T01:21:27.657Z,925
2016-12-10T01:21:42.118Z,925
2016-12-10T01:21:56.508Z,924.98
2016-12-10T01:22:10.816Z,924.99
2016-12-10T01:22:25.211Z,924.96
2016-12-10T01:22:39.639Z,924.98
2016-12-10T01:22:54.031Z,924.98
2016-12-10T01:23:08.407Z,924.97
2016-12-10T01:23:22.813Z,924.99
2016-12-10T01:23:37.196Z,925.01
2016-12-10T01:23:51.613Z,925
2016-12-10T01:24:05.931Z,925.01
2016-12-10T01:24:20.282Z,924.97
2016-12-10T01:24:34.682Z,925
2016-12-10T01:24:49.043Z,925.03
2016-12-10T01:25:03.497Z,925.01
2016-12-10T01:25:17.970Z,924.96
2016-12-10T01:25:32.317Z,924.96
2016-12-10T01:25:46.780Z,924.96
2016-12-10T01:26:01.162Z,924.97
2016-12-10T01:26:15.497Z,924.97
2016-12-10T01:26:29.867Z,925
2016-12-10T01:26:44.244Z,924.99
2016-12-10T01:26:58.683Z,924.96
2016-12-10T01:27:13.189Z,924.96
2016-12-10T01:27:27.585Z,924.93
2016-12-10T01:27:41.983Z,924.95
2016-12-10T01:27:56.408Z,924.97
2016-12-10T01:28:10.807Z,924.95
2016-12-10T01:28:25.192Z,924.95
2016-12-10T01:28:39.615Z,924.97
2016-12-10T01:28:53.968Z,924.98
2016-12-10T01:29:08.692Z,924.95
2016-12-10T01:29:23.123Z,924.94
2016-12-10T01:29:37.559Z,924.95
2016-12-10T01:29:51.943Z,924.96
2016-12-10T01:30:06.323Z,924.94
2016-12-10T01:30:20.707Z,924.93
2016-12-10T01:30:35.131Z,924.95
2016-12-10T01:30:49.522Z,924.95
2016-12-10T01:31:03.924Z,924.94
2016-12-10T01:31:18.383Z,924.93
2016-12-10T01:31:32.744Z,924.91
2016-12-10T01:31:47.108Z,924.94
2016-12-10T01:32:01.468Z,924.98
2016-12-10T01:32:15.911Z,924.94
2016-12-10T01:32:30.245Z,924.93
2016-12-10T01:32:44.614Z,924.94
2016-12-10T01:32:59.046Z,924.94
2016-12-10T01:33:13.407Z,924.93
2016-12-10T01:33:27.815Z,924.92
2016-12-10T01:33:42.156Z,924.92
2016-12-10T01:33:56.556Z,924.92
2016-12-10T01:34:11.035Z,924.91
2016-12-10T01:34:25.368Z,924.9
2016-12-10T01:34:39.736Z,924.88
2016-12-10T01:34:54.138Z,924.92
2016-12-10T01:35:08.450Z,924.89
2016-12-10T01:35:22.925Z,924.89
2016-12-10T01:35:37.321Z,924.88
2016-12-10T01:35:51.736Z,924.89
2016-12-10T01:36:06.129Z,924.88
2016-12-10T01:36:20.493Z,924.88
2016-12-10T01:36:34.940Z,924.87
2016-12-10T01:36:49.314Z,924.85
2016-12-10T01:37:03.771Z,924.87
2016-12-10T01:37:18.191Z,924.86
2016-12-10T01:37:32.552Z,924.86
2016-12-10T01:37:46.951Z,924.87
2016-12-10T01:38:01.329Z,924.87
2016-12-10T01:38:15.703Z,924.84
2016-12-10T01:38:30.170Z,924.89
2016-12-10T01:38:44.519Z,924.86
2016-12-10T01:38:58.892Z,924.84
2016-12-10T01:39:13.358Z,924.89
2016-12-10T01:39:27.722Z,924.88
2016-12-10T01:39:42.139Z,924.85
2016-12-10T01:39:56.494Z,924.87
2016-12-10T01:40:10.905Z,924.89
2016-12-10T01:40:25.277Z,924.84
2016-12-10T01:40:39.646Z,924.83
2016-12-10T01:40:54.053Z,924.87
2016-12-10T01:41:08.379Z,924.85
2016-12-10T01:41:22.753Z,924.87
2016-12-10T01:41:37.112Z,924.87
2016-12-10T01:41:51.505Z,924.84
2016-12-10T01:42:05.894Z,924.91
2016-12-10T01:42:20.246Z,924.92
2016-12-10T01:42:34.626Z,924.86
2016-12-10T01:42:48.992Z,924.89
2016-12-10T01:43:03.304Z,924.88
2016-12-10T01:43:17.737Z,924.88
2016-12-10T01:43:32.130Z,924.89
2016-12-10T01:43:46.557Z,924.9
2016-12-10T01:44:01.000Z,924.9
2016-12-10T01:44:15.688Z,924.91
2016-12-10T01:44:30.126Z,924.94
2016-12-10T01:44:44.490Z,924.93
2016-12-10T01:44:58.843Z,924.93
2016-12-10T01:45:13.274Z,924.9
2016-12-10T01:45:27.759Z,924.9
2016-12-10T01:45:42.132Z,924.91
2016-12-10T01:45:56.600Z,924.91
2016-12-10T01:46:10.988Z,924.93
2016-12-10T01:46:25.471Z,924.93
2016-12-10T01:46:39.940Z,924.93
2016-12-10T01:46:54.372Z,924.94
2016-12-10T01:47:08.818Z,924.96
2016-12-10T01:47:23.255Z,924.92
2016-12-10T01:47:37.711Z,924.91
2016-12-10T01:47:52.093Z,924.93
2016-12-10T01:48:06.443Z,924.92
2016-12-10T01:48:20.901Z,925.01
2016-12-10T01:48:35.266Z,924.98
2016-12-10T01:48:49.639Z,924.95
2016-12-10T01:49:04.030Z,925
2016-12-10T01:49:18.346Z,924.96
2016-12-10T01:49:32.736Z,924.96
2016-12-10T01:49:47.173Z,924.96
2016-12-10T01:50:01.590Z,924.97
2016-12-10T01:50:15.989Z,924.91
2016-12-10T01:50:30.455Z,924.99
2016-12-10T01:50:44.789Z,924.97
2016-12-10T01:50:59.244Z,924.96
2016-12-10T01:51:13.635Z,924.94
2016-12-10T01:51:27.987Z,924.97
2016-12-10T01:51:42.411Z,924.92
2016-12-10T01:51:56.830Z,924.95
2016-12-10T01:52:11.187Z,924.9
2016-12-10T01:52:25.519Z,924.93
2016-12-10T01:52:39.863Z,924.93
2016-12-10T01:52:54.292Z,924.96
2016-12-10T01:53:08.658Z,924.95
2016-12-10T01:53:23.030Z,924.94
2016-12-10T01:53:37.431Z,924.94
2016-12-10T01:53:51.852Z,924.93
2016-12-10T01:54:06.234Z,924.95
2016-12-10T01:54:20.633Z,924.92
2016-12-10T01:54:35.060Z,924.9
2016-12-10T01:54:49.463Z,924.91
2016-12-10T01:55:03.869Z,924.89
2016-12-10T01:55:18.223Z,924.92
2016-12-10T01:55:32.635Z,924.91
2016-12-10T01:55:47.022Z,924.9
2016-12-10T01:56:01.393Z,924.89
2016-12-10T01:56:15.782Z,924.89
2016-12-10T01:56:30.273Z,924.88
2016-12-10T01:56:44.638Z,924.88
2016-12-10T01:56:59.101Z,924.91
2016-12-10T01:57:13.586Z,924.91
2016-12-10T01:57:27.961Z,924.89
2016-12-10T01:57:42.376Z,924.87
2016-12-10T01:57:56.784Z,924.9
2016-12-10T01:58:11.204Z,924.92
2016-12-10T01:58:25.605Z,924.9
2016-12-10T01:58:40.087Z,924.87
2016-12-10T01:58:54.386Z,924.9
2016-12-10T01:59:08.740Z,924.9
2016-12-10T01:59:23.394Z,924.83
2016-12-10T01:59:37.786Z,924.85
2016-12-10T01:59:52.198Z,924.85
2016-12-10T02:00:06.625Z,924.87
2016-12-10T02:00:21.107Z,924.84
2016-12-10T02:00:35.528Z,924.87
2016-12-10T02:00:49.900Z,924.82
2016-12-10T02:01:04.289Z,924.83
2016-12-10T02:01:18.681Z,924.82
2016-12-10T02:01:33.072Z,924.82
2016-12-10T02:01:47.541Z,924.79
2016-12-10T02:02:01.986Z,924.84
2016-12-10T02:02:16.397Z,924.82
2016-12-10T02:02:30.765Z,924.83
2016-12-10T02:02:45.152Z,924.8
2016-12-10T02:02:59.538Z,924.8
2016-12-10T02:03:13.923Z,924.84
2016-12-10T02:03:28.299Z,924.84
2016-12-10T02:03:42.730Z,924.81
2016-12-10T02:03:57.138Z,924.83
2016-12-10T02:04:11.561Z,924.84
2016-12-10T02:04:25.968Z,924.8
2016-12-10T02:04:40.362Z,924.78
2016-12-10T02:04:54.720Z,924.76
2016-12-10T02:05:09.112Z,924.77
2016-12-10T02:05:23.525Z,924.78
2016-12-10T02:05:37.892Z,924.77
2016-12-10T02:05:52.366Z,924.74
2016-12-10T02:06:06.755Z,924.76
2016-12-10T02:06:21.173Z,924.7
2016-12-10T02:06:35.603Z,924.73
2016-12-10T02:06:50.037Z,924.73
2016-12-10T02:07:04.416Z,924.71
2016-12-10T02:07:18.746Z,924.76
2016-12-10T02:07:33.159Z,924.69
2016-12-10T02:07:47.569Z,924.7
2016-12-10T02:08:02.030Z,924.68
2016-12-10T02:08:16.369Z,924.69
2016-12-10T02:08:30.772Z,924.69
2016-12-10T02:08:45.158Z,924.68
2016-12-10T02:08:59.575Z,924.68
2016-12-10T02:09:13.958Z,924.7
2016-12-10T02:09:28.348Z,924.69
2016-12-10T02:09:42.745Z,924.67
2016-12-10T02:09:57.129Z,924.66
2016-12-10T02:10:11.537Z,924.67
2016-12-10T02:10:25.949Z,924.68
2016-12-10T02:10:40.305Z,924.67
2016-12-10T02:10:54.683Z,924.63
2016-12-10T02:11:09.084Z,924.65
2016-12-10T02:11:23.474Z,924.68
2016-12-10T02:11:37.864Z,924.67
2016-12-10T02:11:52.249Z,924.65
2016-12-10T02:12:06.616Z,924.64
2016-12-10T02:12:20.943Z,924.66
2016-12-10T02:12:35.394Z,924.63
2016-12-10T02:12:49.852Z,924.65
2016-12-10T02:13:04.236Z,924.68
2016-12-10T02:13:18.632Z,924.66
2016-12-10T02:13:33.086Z,924.67
2016-12-10T02:13:47.482Z,924.62
2016-12-10T02:14:01.948Z,924.66
2016-12-10T02:14:16.328Z,924.65
2016-12-10T02:14:31.044Z,924.61
2016-12-10T02:14:45.482Z,924.68
2016-12-10T02:14:59.925Z,924.64
2016-12-10T02:15:14.281Z,924.71
2016-12-10T02:15:28.712Z,924.7
2016-12-10T02:15:43.082Z,924.69
2016-12-10T02:15:57.497Z,924.67
2016-12-10T02:16:11.821Z,924.69
2016-12-10T02:16:26.211Z,924.68
2016-12-10T02:16:40.573Z,924.71
2016-12-10T02:16:55.014Z,924.69
2016-12-10T02:17:09.393Z,924.69
2016-12-10T02:17:23.891Z,924.69
2016-12-10T02:17:38.198Z,924.74
2016-12-10T02:17:52.576Z,924.73
2016-12-10T02:18:06.959Z,924.73
2016-12-10T02:18:21.391Z,924.76
2016-12-10T02:18:35.825Z,924.82
2016-12-10T02:18:50.232Z,924.77
2016-12-10T02:19:04.621Z,924.76
2016-12-10T02:19:19.063Z,924.77
2016-12-10T02:19:33.379Z,924.73
2016-12-10T02:19:47.817Z,924.79
2016-12-10T02:20:02.296Z,924.77
2016-12-10T02:20:16.674Z,924.79
2016-12-10T02:20:31.024Z,924.75
2016-12-10T02:20:45.454Z,924.82
2016-12-10T02:20:59.854Z,924.8
2016-12-10T02:21:14.293Z,924.8
2016-12-10T02:21:28.646Z,924.77
2016-12-10T02:21:43.011Z,924.8
2016-12-10T02:21:57.403Z,924.81
2016-12-10T02:22:11.795Z,924.79
2016-12-10T02:22:26.246Z,924.8
2016-12-10T02:22:40.678Z,924.79
2016-12-10T02:22:55.022Z,924.8
2016-12-10T02:23:09.386Z,924.77
2016-12-10T02:23:23.796Z,924.81
2016-12-10T02:23:38.237Z,924.79
2016-12-10T02:23:52.542Z,924.77
2016-12-10T02:24:06.914Z,924.79
2016-12-10T02:24:21.276Z,924.77
2016-12-10T02:24:35.659Z,924.77
2016-12-10T02:24:49.981Z,924.77
2016-12-10T02:25:04.413Z,924.77
2016-12-10T02:25:18.792Z,924.75
2016-12-10T02:25:33.167Z,924.74
2016-12-10T02:25:47.592Z,924.73
2016-12-10T02:26:02.019Z,924.73
2016-12-10T02:26:16.379Z,924.72
2016-12-10T02:26:30.835Z,924.72
2016-12-10T02:26:45.279Z,924.73
2016-12-10T02:26:59.709Z,924.71
2016-12-10T02:27:14.124Z,924.69
2016-12-10T02:27:28.491Z,924.72
2016-12-10T02:27:42.876Z,924.67
2016-12-10T02:27:57.320Z,924.7
2016-12-10T02:28:11.735Z,924.69
2016-12-10T02:28:26.124Z,924.68
2016-12-10T02:28:40.552Z,924.69
2016-12-10T02:28:54.953Z,924.68
2016-12-10T02:29:09.328Z,924.68
2016-12-10T02:29:23.762Z,924.64
2016-12-10T02:29:38.423Z,924.65
2016-12-10T02:29:52.835Z,924.64
2016-12-10T02:30:07.190Z,924.62
2016-12-10T02:30:21.511Z,924.64
2016-12-10T02:30:35.958Z,924.62
2016-12-10T02:30:50.393Z,924.6
2016-12-10T02:31:04.807Z,924.61
2016-12-10T02:31:19.178Z,924.63
2016-12-10T02:31:33.537Z,924.61
2016-12-10T02:31:47.888Z,924.66
2016-12-10T02:32:02.257Z,924.64
2016-12-10T02:32:16.634Z,924.64
2016-12-10T02:32:31.001Z,924.65
2016-12-10T02:32:45.374Z,924.65
2016-12-10T02:32:59.698Z,924.62
2016-12-10T02:33:14.093Z,924.64
2016-12-10T02:33:28.596Z,924.67
2016-12-10T02:33:42.980Z,924.63
2016-12-10T02:33:57.404Z,924.64
2016-12-10T02:34:11.806Z,924.64
2016-12-10T02:34:26.210Z,924.66
2016-12-10T02:34:40.636Z,924.6
2016-12-10T02:34:55.008Z,924.64
2016-12-10T02:35:09.419Z,924.65
2016-12-10T02:35:23.853Z,924.67
2016-12-10T02:35:38.314Z,924.64
2016-12-10T02:35:52.840Z,924.65
2016-12-10T02:36:07.286Z,924.65
2016-12-10T02:36:21.766Z,924.68
2016-12-10T02:36:36.194Z,924.68
2016-12-10T02:36:50.596Z,924.65
2016-12-10T02:37:04.968Z,924.67
2016-12-10T02:37:19.409Z,924.7
2016-12-10T02:37:33.894Z,924.71
2016-12-10T02:37:48.276Z,924.68
2016-12-10T02:38:02.659Z,924.68
2016-12-10T02:38:17.032Z,924.67
2016-12-10T02:38:31.393Z,924.71
2016-12-10T02:38:45.778Z,924.64
2016-12-10T02:39:00.215Z,924.64
2016-12-10T02:39:14.593Z,924.64
2016-12-10T02:39:28.992Z,924.62
2016-12-10T02:39:43.353Z,924.64
2016-12-10T02:39:57.815Z,924.63
2016-12-10T02:40:12.206Z,924.64
2016-12-10T02:40:26.665Z,924.64
2016-12-10T02:40:41.138Z,924.62
2016-12-10T02:40:55.616Z,924.64
2016-12-10T02:41:10.095Z,924.6
2016-12-10T02:41:24.441Z,924.65
2016-12-10T02:41:38.880Z,924.61
2016-12-10T02:41:53.183Z,924.63
2016-12-10T02:42:07.666Z,924.64
2016-12-10T02:42:22.026Z,924.65
2016-12-10T02:42:36.470Z,924.61
2016-12-10T02:42:50.824Z,924.62
2016-12-10T02:43:05.181Z,924.62
2016-12-10T02:43:19.604Z,924.61
2016-12-10T02:43:34.002Z,924.64
2016-12-10T02:43:48.495Z,924.59
2016-12-10T02:44:02.838Z,924.61
2016-12-10T02:44:17.224Z,924.62
2016-12-10T02:44:31.652Z,924.62
2016-12-10T02:44:46.253Z,924.59
2016-12-10T02:45:00.705Z,924.57
2016-12-10T02:45:15.050Z,924.56
2016-12-10T02:45:29.463Z,924.57
2016-12-10T02:45:43.844Z,924.58
2016-12-10T02:45:58.229Z,924.58
2016-12-10T02:46:12.669Z,924.6
2016-12-10T02:46:27.029Z,924.61
2016-12-10T02:46:41.370Z,924.62
2016-12-10T02:46:55.824Z,924.58
2016-12-10T02:47:10.210Z,924.59
2016-12-10T02:47:24.687Z,924.57
2016-12-10T02:47:39.042Z,924.6
2016-12-10T02:47:53.447Z,924.62
2016-12-10T02:48:07.790Z,924.61
2016-12-10T02:48:22.262Z,924.59
2016-12-10T02:48:36.687Z,924.61
2016-12-10T02:48:51.054Z,924.59
2016-12-10T02:49:05.452Z,924.6
2016-12-10T02:49:19.874Z,924.57
2016-12-10T02:49:34.295Z,924.59
2016-12-10T02:49:48.707Z,924.6
2016-12-10T02:50:03.071Z,924.57
2016-12-10T02:50:17.504Z,924.59
2016-12-10T02:50:31.888Z,924.59
2016-12-10T02:50:46.195Z,924.59
2016-12-10T02:51:00.548Z,924.54
2016-12-10T02:51:14.971Z,924.58
2016-12-10T02:51:29.370Z,924.58
2016-12-10T02:51:43.783Z,924.55
2016-12-10T02:51:58.232Z,924.57
2016-12-10T02:52:12.648Z,924.6
2016-12-10T02:52:27.040Z,924.56
2016-12-10T02:52:41.409Z,924.58
2016-12-10T02:52:55.832Z,924.57
2016-12-10T02:53:10.205Z,924.62
2016-12-10T02:53:24.593Z,924.57
2016-12-10T02:53:38.982Z,924.56
2016-12-10T02:53:53.429Z,924.57
2016-12-10T02:54:07.919Z,924.6
2016-12-10T02:54:22.318Z,924.58
2016-12-10T02:54:36.862Z,924.57
2016-12-10T02:54:51.263Z,924.53
2016-12-10T02:55:05.652Z,924.56
2016-12-10T02:55:20.040Z,924.55
2016-12-10T02:55:34.428Z,924.51
2016-12-10T02:55:48.922Z,924.49
2016-12-10T02:56:03.313Z,924.52
2016-12-10T02:56:17.724Z,924.48
2016-12-10T02:56:32.119Z,924.51
2016-12-10T02:56:46.536Z,924.49
2016-12-10T02:57:00.964Z,924.47
2016-12-10T02:57:15.363Z,924.48
2016-12-10T02:57:29.771Z,924.46
2016-12-10T02:57:44.225Z,924.48
2016-12-10T02:57:58.606Z,924.49
2016-12-10T02:58:12.926Z,924.45
2016-12-10T02:58:27.310Z,924.47
2016-12-10T02:58:41.739Z,924.46
2016-12-10T02:58:56.169Z,924.46
2016-12-10T02:59:10.682Z,924.42
2016-12-10T02:59:25.116Z,924.43
2016-12-10T02:59:39.455Z,924.41
2016-12-10T02:59:54.177Z,924.41
2016-12-10T03:00:08.546Z,924.41
2016-12-10T03:00:22.994Z,924.42
2016-12-10T03:00:37.300Z,924.43
2016-12-10T03:00:51.700Z,924.41